createdAt,value
2022-11-26T00:03:09.421Z,6.00
2022-11-26T00:05:41.980Z,6.10
2022-11-26T00:08:47.845Z,6.10
2022-11-26T00:11:17.322Z,5.90
2022-11-26T00:13:50.854Z,5.80
2022-11-26T00:19:06.569Z,5.70
2022-11-26T00:21:41.928Z,5.70
2022-11-26T00:24:28.568Z,5.70
2022-11-26T00:27:01.422Z,5.70
2022-11-26T00:29:31.485Z,5.70
2022-11-26T00:32:22.904Z,5.70
2022-11-26T00:34:58.670Z,5.70
2022-11-26T00:37:33.902Z,5.80
2022-11-26T00:40:08.680Z,5.90
2022-11-26T00:45:28.310Z,6.00
2022-11-26T00:48:01.146Z,5.90
2022-11-26T00:50:46.862Z,5.90
2022-11-26T00:53:21.845Z,6.00
2022-11-26T00:55:55.715Z,5.90
2022-11-26T00:58:30.689Z,5.90
2022-11-26T01:01:03.556Z,5.80
2022-11-26T01:03:35.979Z,5.80
2022-11-26T01:06:07.963Z,5.80
2022-11-26T01:08:40.592Z,5.80
2022-11-26T01:11:20.074Z,5.80
2022-11-26T01:13:54.941Z,5.90
2022-11-26T01:16:29.935Z,5.80
2022-11-26T01:19:02.823Z,5.80
2022-11-26T01:21:34.285Z,5.60
2022-11-26T01:24:04.832Z,5.60
2022-11-26T01:26:46.312Z,5.50
2022-11-26T01:29:20.702Z,5.50
2022-11-26T01:31:48.157Z,5.40
2022-11-26T01:34:17.858Z,5.40
2022-11-26T01:36:49.940Z,5.30
2022-11-26T01:39:22.067Z,5.30
2022-11-26T01:42:26.368Z,5.20
2022-11-26T01:44:54.871Z,5.20
2022-11-26T01:47:28.629Z,5.20
2022-11-26T01:50:30.982Z,5.30
2022-11-26T01:53:39.210Z,5.30
2022-11-26T01:56:35.861Z,5.30
2022-11-26T01:59:31.525Z,5.40
2022-11-26T02:02:01.881Z,5.50
2022-11-26T02:05:17.011Z,5.50
2022-11-26T02:07:49.541Z,5.50
2022-11-26T02:10:20.457Z,5.50
2022-11-26T02:12:50.486Z,5.50
2022-11-26T02:15:20.429Z,5.40
2022-11-26T02:18:18.472Z,5.40
2022-11-26T02:21:20.986Z,5.40
2022-11-26T02:24:25.619Z,5.30
2022-11-26T02:26:56.259Z,5.30
2022-11-26T02:29:53.737Z,5.40
2022-11-26T02:32:35.268Z,5.40
2022-11-26T02:35:23.368Z,5.30
2022-11-26T02:38:11.118Z,5.30
2022-11-26T02:40:45.837Z,5.20
2022-11-26T02:43:19.168Z,5.10
2022-11-26T02:45:57.962Z,5.10
2022-11-26T02:48:56.641Z,5.10
2022-11-26T02:51:50.795Z,5.00
2022-11-26T02:54:24.490Z,4.90
2022-11-26T02:56:55.633Z,4.90
2022-11-26T02:59:23.520Z,4.80
2022-11-26T03:02:08.103Z,4.70
2022-11-26T03:04:43.433Z,4.60
2022-11-26T03:07:27.439Z,4.50
2022-11-26T03:10:04.326Z,4.50
2022-11-26T03:12:32.958Z,4.50
2022-11-26T03:15:01.935Z,4.40
2022-11-26T03:17:36.592Z,4.40
2022-11-26T03:20:05.724Z,4.40
2022-11-26T03:22:35.941Z,4.40
2022-11-26T03:25:10.629Z,4.40
2022-11-26T03:27:41.251Z,4.40
2022-11-26T03:30:15.748Z,4.40
2022-11-26T03:32:43.838Z,4.40
2022-11-26T03:35:20.522Z,4.50
2022-11-26T03:37:51.354Z,4.40
2022-11-26T03:40:20.397Z,4.30
2022-11-26T03:42:50.678Z,4.20
2022-11-26T03:45:20.243Z,4.20
2022-11-26T03:47:51.628Z,4.20
2022-11-26T03:50:20.027Z,4.20
2022-11-26T03:52:51.260Z,4.30
2022-11-26T03:55:22.341Z,4.20
2022-11-26T03:57:56.203Z,4.00
2022-11-26T04:00:28.751Z,3.90
2022-11-26T04:02:59.730Z,3.90
2022-11-26T04:05:44.495Z,3.90
2022-11-26T04:08:12.535Z,3.80
2022-11-26T04:10:42.944Z,3.90
2022-11-26T04:13:13.191Z,3.90
2022-11-26T04:15:47.689Z,3.80
2022-11-26T04:18:18.416Z,3.70
2022-11-26T04:21:12.104Z,3.70
2022-11-26T04:23:42.159Z,3.50
2022-11-26T04:26:14.813Z,3.50
2022-11-26T04:28:43.289Z,3.50
2022-11-26T04:31:13.313Z,3.50
2022-11-26T04:33:51.471Z,3.50
2022-11-26T04:36:23.806Z,3.40
2022-11-26T04:38:53.155Z,3.50
2022-11-26T04:41:25.110Z,3.50
2022-11-26T04:43:56.484Z,3.40
2022-11-26T04:46:28.663Z,3.40
2022-11-26T04:48:57.862Z,3.50
2022-11-26T04:51:29.335Z,3.60
2022-11-26T04:54:03.153Z,3.60
2022-11-26T04:56:33.931Z,3.60
2022-11-26T04:59:06.453Z,3.70
2022-11-26T05:01:37.578Z,3.70
2022-11-26T05:04:09.265Z,3.80
2022-11-26T05:06:39.174Z,3.80
2022-11-26T05:09:15.939Z,3.80
2022-11-26T05:11:44.411Z,3.80
2022-11-26T05:14:13.610Z,3.70
2022-11-26T05:16:43.584Z,3.60
2022-11-26T05:19:13.351Z,3.70
2022-11-26T05:21:43.847Z,3.70
2022-11-26T05:24:12.970Z,3.60
2022-11-26T05:26:41.922Z,3.70
2022-11-26T05:29:11.604Z,3.70
2022-11-26T05:31:44.684Z,3.70
2022-11-26T05:34:17.708Z,3.70
2022-11-26T05:36:49.164Z,3.80
2022-11-26T05:39:23.020Z,3.80
2022-11-26T05:41:54.770Z,3.90
2022-11-26T05:44:24.759Z,3.90
2022-11-26T05:49:37.967Z,3.80
2022-11-26T05:52:11.666Z,3.90
2022-11-26T05:54:47.126Z,3.90
2022-11-26T05:57:20.516Z,3.90
2022-11-26T05:59:54.570Z,3.80
2022-11-26T06:02:24.357Z,3.70
2022-11-26T06:04:56.473Z,3.60
2022-11-26T06:07:25.849Z,3.50
2022-11-26T06:09:58.808Z,3.60
2022-11-26T06:12:26.970Z,3.60
2022-11-26T06:15:00.851Z,3.70
2022-11-26T06:17:31.337Z,3.70
2022-11-26T06:19:59.953Z,3.70
2022-11-26T06:22:31.196Z,3.70
2022-11-26T06:25:01.981Z,3.60
2022-11-26T06:27:36.813Z,3.60
2022-11-26T06:30:19.272Z,3.60
2022-11-26T06:32:49.725Z,3.60
2022-11-26T06:35:20.436Z,3.60
2022-11-26T06:37:51.746Z,3.60
2022-11-26T06:40:23.285Z,3.40
2022-11-26T06:42:55.333Z,3.30
2022-11-26T06:45:27.028Z,3.20
2022-11-26T06:47:59.146Z,3.10
2022-11-26T06:50:31.973Z,3.10
2022-11-26T06:53:05.994Z,3.00
2022-11-26T06:55:37.188Z,3.00
2022-11-26T06:58:09.358Z,3.00
2022-11-26T07:00:40.282Z,3.00
2022-11-26T07:03:11.908Z,3.10
2022-11-26T07:05:42.999Z,3.10
2022-11-26T07:08:14.721Z,3.20
2022-11-26T07:10:49.051Z,3.30
2022-11-26T07:13:25.992Z,3.30
2022-11-26T07:15:55.454Z,3.40
2022-11-26T07:18:27.522Z,3.40
2022-11-26T07:21:00.155Z,3.40
2022-11-26T07:23:31.937Z,3.50
2022-11-26T07:26:04.616Z,3.50
2022-11-26T07:28:56.093Z,3.60
2022-11-26T07:31:27.682Z,3.60
2022-11-26T07:34:00.312Z,3.70
2022-11-26T07:36:30.841Z,3.80
2022-11-26T07:41:45.615Z,4.00
2022-11-26T07:44:15.900Z,4.10
2022-11-26T07:46:48.061Z,4.20
2022-11-26T07:49:22.619Z,4.30
2022-11-26T07:51:54.193Z,4.40
2022-11-26T07:57:15.688Z,4.50
2022-11-26T07:59:43.303Z,4.50
2022-11-26T08:02:18.211Z,4.60
2022-11-26T08:04:51.758Z,4.60
2022-11-26T08:07:26.126Z,4.60
2022-11-26T08:10:01.592Z,4.60
2022-11-26T08:12:38.142Z,4.60
2022-11-26T08:15:09.405Z,4.70
2022-11-26T08:17:41.812Z,4.80
2022-11-26T08:20:09.903Z,4.80
2022-11-26T08:22:40.498Z,4.80
2022-11-26T08:25:25.055Z,4.80
2022-11-26T08:27:53.079Z,4.90
2022-11-26T08:30:22.538Z,4.90
2022-11-26T08:32:54.242Z,4.90
2022-11-26T08:35:44.479Z,4.90
2022-11-26T08:38:15.434Z,5.00
2022-11-26T08:40:47.921Z,5.20
2022-11-26T08:43:18.178Z,5.30
2022-11-26T08:45:59.809Z,5.40
2022-11-26T08:48:32.018Z,5.50
2022-11-26T08:51:14.123Z,5.50
2022-11-26T08:54:00.996Z,5.60
2022-11-26T08:56:30.346Z,5.70
2022-11-26T08:59:05.377Z,5.70
2022-11-26T09:01:37.416Z,5.90
2022-11-26T09:04:09.033Z,5.90
2022-11-26T09:06:40.771Z,5.90
2022-11-26T09:09:22.382Z,6.00
2022-11-26T09:11:58.076Z,6.00
2022-11-26T09:14:31.979Z,5.90
2022-11-26T09:17:04.780Z,5.90
2022-11-26T09:19:34.544Z,5.90
2022-11-26T09:22:06.822Z,6.00
2022-11-26T09:24:42.872Z,6.00
2022-11-26T09:27:15.526Z,6.00
2022-11-26T09:29:43.195Z,6.00
2022-11-26T09:32:24.493Z,6.10
2022-11-26T09:34:59.801Z,6.10
2022-11-26T09:37:36.183Z,6.20
2022-11-26T09:40:13.546Z,6.20
2022-11-26T09:43:15.965Z,6.20
2022-11-26T09:45:59.138Z,6.30
2022-11-26T09:48:34.741Z,6.50
2022-11-26T09:51:21.642Z,6.60
2022-11-26T09:53:57.836Z,6.60
2022-11-26T09:56:30.589Z,6.80
2022-11-26T09:59:11.180Z,6.90
2022-11-26T10:01:50.367Z,7.10
2022-11-26T10:04:24.722Z,7.20
2022-11-26T10:07:43.368Z,7.30
2022-11-26T10:10:26.511Z,7.20
2022-11-26T10:13:27.905Z,7.20
2022-11-26T10:16:21.719Z,7.20
2022-11-26T10:19:28.170Z,7.00
2022-11-26T10:22:07.217Z,7.10
2022-11-26T10:24:45.321Z,7.20
2022-11-26T10:27:27.679Z,7.30
2022-11-26T10:30:22.444Z,7.50
2022-11-26T10:32:56.918Z,7.70
2022-11-26T10:35:31.487Z,7.80
2022-11-26T10:38:02.324Z,7.90
2022-11-26T10:40:40.337Z,8.00
2022-11-26T10:43:15.835Z,7.80
2022-11-26T10:46:11.310Z,7.70
2022-11-26T10:48:41.801Z,7.80
2022-11-26T10:51:34.068Z,7.90
2022-11-26T10:54:06.749Z,7.90
2022-11-26T10:57:01.641Z,8.10
2022-11-26T10:59:40.348Z,8.20
2022-11-26T11:02:35.917Z,8.20
2022-11-26T11:05:13.220Z,8.40
2022-11-26T11:07:45.050Z,8.50
2022-11-26T11:10:38.032Z,8.30
2022-11-26T11:13:21.445Z,8.00
2022-11-26T11:16:09.390Z,8.00
2022-11-26T11:18:50.428Z,8.10
2022-11-26T11:21:35.014Z,8.20
2022-11-26T11:24:29.633Z,8.20
2022-11-26T11:27:02.680Z,8.40
2022-11-26T11:29:30.624Z,8.40
2022-11-26T11:32:02.327Z,8.50
2022-11-26T11:34:45.708Z,8.50
2022-11-26T11:37:21.603Z,8.50
2022-11-26T11:40:17.452Z,8.50
2022-11-26T11:43:03.826Z,8.40
2022-11-26T11:45:43.283Z,8.40
2022-11-26T11:48:57.365Z,8.40
2022-11-26T11:52:04.721Z,8.50
2022-11-26T11:55:21.062Z,8.40
2022-11-26T11:58:29.789Z,8.60
2022-11-26T12:01:40.229Z,8.60
2022-11-26T12:04:47.478Z,8.70
2022-11-26T12:07:42.301Z,8.70
2022-11-26T12:11:05.097Z,8.80
2022-11-26T12:14:04.983Z,8.80
2022-11-26T12:16:39.048Z,8.70
2022-11-26T12:19:41.785Z,8.60
2022-11-26T12:22:28.225Z,8.50
2022-11-26T12:25:20.117Z,8.40
2022-11-26T12:28:12.182Z,8.30
2022-11-26T12:31:36.435Z,8.40
2022-11-26T12:34:30.875Z,8.50
2022-11-26T12:37:42.709Z,8.60
2022-11-26T12:40:28.509Z,8.70
2022-11-26T12:43:10.419Z,8.80
2022-11-26T12:45:43.395Z,8.90
2022-11-26T12:48:33.110Z,9.00
2022-11-26T12:51:50.022Z,8.90
2022-11-26T12:54:41.542Z,8.80
2022-11-26T12:57:32.255Z,8.70
2022-11-26T13:00:08.423Z,8.50
2022-11-26T13:02:49.049Z,8.50
2022-11-26T13:05:41.390Z,8.40
2022-11-26T13:08:46.744Z,8.30
2022-11-26T13:12:02.050Z,8.30
2022-11-26T13:15:07.113Z,8.80
2022-11-26T13:17:54.937Z,9.00
2022-11-26T13:20:51.297Z,9.00
2022-11-26T13:23:53.546Z,8.90
2022-11-26T13:26:54.514Z,8.90
2022-11-26T13:29:54.894Z,9.10
2022-11-26T13:32:40.938Z,9.10
2022-11-26T13:35:33.852Z,9.10
2022-11-26T13:38:44.913Z,9.00
2022-11-26T13:41:52.346Z,8.90
2022-11-26T13:45:12.279Z,8.70
2022-11-26T13:48:18.284Z,8.50
2022-11-26T13:51:09.631Z,8.40
2022-11-26T13:53:46.619Z,8.30
2022-11-26T13:56:17.267Z,8.40
2022-11-26T13:59:11.495Z,8.30
2022-11-26T14:01:43.860Z,8.20
2022-11-26T14:04:34.990Z,8.20
2022-11-26T14:07:19.528Z,8.10
2022-11-26T14:10:07.707Z,8.10
2022-11-26T14:13:11.596Z,8.00
2022-11-26T14:15:52.523Z,8.00
2022-11-26T14:18:59.574Z,8.00
2022-11-26T14:21:32.468Z,7.90
2022-11-26T14:24:00.982Z,7.80
2022-11-26T14:26:47.528Z,7.80
2022-11-26T14:29:20.542Z,7.70
2022-11-26T14:31:56.242Z,7.60
2022-11-26T14:34:51.563Z,7.60
2022-11-26T14:37:24.497Z,7.60
2022-11-26T14:40:09.819Z,7.60
2022-11-26T14:42:43.923Z,7.50
2022-11-26T14:45:22.298Z,7.40
2022-11-26T14:47:52.567Z,7.40
2022-11-26T14:50:24.010Z,7.40
2022-11-26T14:53:19.245Z,7.30
2022-11-26T14:55:53.006Z,7.30
2022-11-26T14:58:37.494Z,7.30
2022-11-26T15:01:18.731Z,7.30
2022-11-26T15:04:03.079Z,7.20
2022-11-26T15:06:35.509Z,7.20
2022-11-26T15:09:24.981Z,7.20
2022-11-26T15:12:18.333Z,7.10
2022-11-26T15:15:04.163Z,7.10
2022-11-26T15:17:34.146Z,7.00
2022-11-26T15:20:10.156Z,7.00
2022-11-26T15:22:55.899Z,6.90
2022-11-26T15:25:42.314Z,6.90
2022-11-26T15:28:25.365Z,6.90
2022-11-26T15:31:00.854Z,6.90
2022-11-26T15:33:33.149Z,6.80
2022-11-26T15:36:05.287Z,6.90
2022-11-26T15:38:38.277Z,6.80
2022-11-26T15:41:19.360Z,6.80
2022-11-26T15:43:58.924Z,6.80
2022-11-26T15:46:31.361Z,6.80
2022-11-26T15:49:07.859Z,6.90
2022-11-26T15:51:42.769Z,6.90
2022-11-26T15:54:49.480Z,6.80
2022-11-26T15:57:40.385Z,6.80
2022-11-26T16:00:44.178Z,6.70
2022-11-26T16:03:53.153Z,6.80
2022-11-26T16:06:35.397Z,6.70
2022-11-26T16:09:37.994Z,6.60
2022-11-26T16:12:30.313Z,6.60
2022-11-26T16:15:27.327Z,6.50
2022-11-26T16:17:58.241Z,6.50
2022-11-26T16:20:29.851Z,6.50
2022-11-26T16:23:28.233Z,6.50
2022-11-26T16:26:23.893Z,6.60
2022-11-26T16:28:51.966Z,6.60
2022-11-26T16:31:21.778Z,6.60
2022-11-26T16:34:09.596Z,6.50
2022-11-26T16:36:45.069Z,6.60
2022-11-26T16:39:18.417Z,6.60
2022-11-26T16:41:51.551Z,6.60
2022-11-26T16:44:20.169Z,6.60
2022-11-26T16:46:53.243Z,6.60
2022-11-26T16:49:22.968Z,6.50
2022-11-26T16:51:56.339Z,6.50
2022-11-26T16:57:20.017Z,6.60
2022-11-26T16:59:59.162Z,6.50
2022-11-26T17:02:31.032Z,6.40
2022-11-26T17:05:07.662Z,6.40
2022-11-26T17:07:57.147Z,6.40
2022-11-26T17:10:31.557Z,6.40
2022-11-26T17:13:01.653Z,6.40
2022-11-26T17:15:29.825Z,6.40
2022-11-26T17:18:21.612Z,6.40
2022-11-26T17:20:56.840Z,6.40
2022-11-26T17:23:37.403Z,6.40
2022-11-26T17:26:22.747Z,6.30
2022-11-26T17:28:57.643Z,6.30
2022-11-26T17:31:28.230Z,6.20
2022-11-26T17:34:07.778Z,6.30
2022-11-26T17:36:42.734Z,6.30
2022-11-26T17:39:16.033Z,6.30
2022-11-26T17:41:44.990Z,6.20
2022-11-26T17:44:17.246Z,6.20
2022-11-26T17:47:15.655Z,6.20
2022-11-26T17:49:40.509Z,6.20
2022-11-26T17:52:15.589Z,6.20
2022-11-26T17:54:50.559Z,6.20
2022-11-26T17:57:26.306Z,6.20
2022-11-26T17:59:54.126Z,6.30
2022-11-26T18:02:24.019Z,6.30
2022-11-26T18:04:55.796Z,6.40
2022-11-26T18:07:30.791Z,6.40
2022-11-26T18:10:02.755Z,6.50
2022-11-26T18:12:31.675Z,6.30
2022-11-26T18:15:21.374Z,6.40
2022-11-26T18:17:54.975Z,6.50
2022-11-26T18:20:27.027Z,6.50
2022-11-26T18:23:03.007Z,6.30
2022-11-26T18:25:36.692Z,6.30
2022-11-26T18:28:12.664Z,6.20
2022-11-26T18:30:44.427Z,6.20
2022-11-26T18:33:14.793Z,6.20
2022-11-26T18:35:46.755Z,6.30
2022-11-26T18:38:14.600Z,6.30
2022-11-26T18:40:45.509Z,6.30
2022-11-26T18:43:15.433Z,6.30
2022-11-26T18:45:46.031Z,6.20
2022-11-26T18:48:14.965Z,6.00
2022-11-26T18:50:46.799Z,5.90
2022-11-26T18:53:17.037Z,5.90
2022-11-26T18:55:47.309Z,5.90
2022-11-26T18:58:18.793Z,6.00
2022-11-26T19:01:01.265Z,5.90
2022-11-26T19:03:33.345Z,6.00
2022-11-26T19:06:07.555Z,6.00
2022-11-26T19:08:42.651Z,6.00
2022-11-26T19:11:27.703Z,6.00
2022-11-26T19:13:59.930Z,6.00
2022-11-26T19:16:51.659Z,6.10
2022-11-26T19:19:20.757Z,6.10
2022-11-26T19:21:56.640Z,6.10
2022-11-26T19:24:26.734Z,6.10
2022-11-26T19:26:54.806Z,6.20
2022-11-26T19:29:22.867Z,6.20
2022-11-26T19:31:51.009Z,6.20
2022-11-26T19:34:21.083Z,6.30
2022-11-26T19:36:58.205Z,6.30
2022-11-26T19:39:29.311Z,6.20
2022-11-26T19:42:00.270Z,6.20
2022-11-26T19:44:28.167Z,6.20
2022-11-26T19:47:01.118Z,6.10
2022-11-26T19:49:31.229Z,6.20
2022-11-26T19:52:05.143Z,6.20
2022-11-26T19:54:38.763Z,6.20
2022-11-26T19:57:15.211Z,6.20
2022-11-26T19:59:46.306Z,6.20
2022-11-26T20:02:16.976Z,6.10
2022-11-26T20:04:51.718Z,6.30
2022-11-26T20:07:24.424Z,6.30
2022-11-26T20:09:57.677Z,6.30
2022-11-26T20:15:15.782Z,6.40
2022-11-26T20:17:46.578Z,6.40
2022-11-26T20:20:19.730Z,6.40
2022-11-26T20:25:39.902Z,6.30
2022-11-26T20:28:09.538Z,6.30
2022-11-26T20:30:39.089Z,6.20
2022-11-26T20:33:09.387Z,6.10
2022-11-26T20:35:54.993Z,6.10
2022-11-26T20:38:28.220Z,6.10
2022-11-26T20:41:03.537Z,6.10
2022-11-26T20:43:33.966Z,6.20
2022-11-26T20:46:28.623Z,6.10
2022-11-26T20:49:00.235Z,6.10
2022-11-26T20:54:19.572Z,6.00
2022-11-26T20:56:49.406Z,6.00
2022-11-26T20:59:20.439Z,6.00
2022-11-26T21:01:49.997Z,6.10
2022-11-26T21:04:20.491Z,5.90
2022-11-26T21:06:49.042Z,6.00
2022-11-26T21:09:19.964Z,5.90
2022-11-26T21:11:53.081Z,6.00
2022-11-26T21:14:23.813Z,6.00
2022-11-26T21:16:56.241Z,6.00
2022-11-26T21:19:26.400Z,6.00
2022-11-26T21:22:01.240Z,6.00
2022-11-26T21:27:15.871Z,6.00
2022-11-26T21:29:52.431Z,6.00
2022-11-26T21:32:24.246Z,6.00
2022-11-26T21:34:52.872Z,6.00
2022-11-26T21:37:25.505Z,5.90
2022-11-26T21:39:54.210Z,5.90
2022-11-26T21:42:24.073Z,5.90
2022-11-26T21:44:54.624Z,5.90
2022-11-26T21:47:25.315Z,5.90
2022-11-26T21:49:55.436Z,5.90
2022-11-26T21:52:28.637Z,5.90
2022-11-26T21:55:04.805Z,5.90
2022-11-26T21:57:35.520Z,5.90
2022-11-26T22:00:08.666Z,5.90
2022-11-26T22:02:44.284Z,5.90
2022-11-26T22:05:18.281Z,5.90
2022-11-26T22:07:52.486Z,5.90
2022-11-26T22:10:22.366Z,5.90
2022-11-26T22:12:54.234Z,5.90
2022-11-26T22:15:31.131Z,5.90
2022-11-26T22:18:02.854Z,5.90
2022-11-26T22:20:36.545Z,5.90
2022-11-26T22:23:10.918Z,5.90
2022-11-26T22:25:40.998Z,5.90
2022-11-26T22:28:14.899Z,5.90
2022-11-26T22:30:53.015Z,5.90
2022-11-26T22:33:23.798Z,5.90
2022-11-26T22:35:58.702Z,5.90
2022-11-26T22:38:30.024Z,5.90
2022-11-26T22:41:08.038Z,5.90
2022-11-26T22:43:38.851Z,5.90
2022-11-26T22:46:16.065Z,5.80
2022-11-26T22:48:52.471Z,5.90
2022-11-26T22:51:22.718Z,5.90
2022-11-26T22:54:01.554Z,5.90
2022-11-26T22:56:52.555Z,5.90
2022-11-26T22:59:21.314Z,5.90
2022-11-26T23:01:57.295Z,5.90
2022-11-26T23:04:29.658Z,6.00
2022-11-26T23:07:01.209Z,6.00
2022-11-26T23:09:28.926Z,6.10
2022-11-26T23:11:57.873Z,6.20
2022-11-26T23:14:26.918Z,6.20
2022-11-26T23:17:07.039Z,6.20
2022-11-26T23:19:39.380Z,6.20
2022-11-26T23:22:34.925Z,6.20
2022-11-26T23:25:07.235Z,6.20
2022-11-26T23:27:43.110Z,6.10
2022-11-26T23:30:16.343Z,6.10
2022-11-26T23:32:47.741Z,6.10
2022-11-26T23:35:17.525Z,6.20
2022-11-26T23:37:49.153Z,6.10
2022-11-26T23:40:21.719Z,6.10
2022-11-26T23:42:49.570Z,6.20
2022-11-26T23:45:21.605Z,6.20
2022-11-26T23:47:56.409Z,6.20
2022-11-26T23:50:27.447Z,6.20
2022-11-26T23:52:58.659Z,6.30
2022-11-26T23:55:30.445Z,6.30
2022-11-26T23:58:00.301Z,6.40
